createdAt,value
2019-04-10T00:00:35.082Z,62.00
2019-04-10T00:03:06.062Z,61.80
2019-04-10T00:05:36.177Z,61.50
2019-04-10T00:08:06.162Z,62.30
2019-04-10T00:10:45.860Z,61.80
2019-04-10T00:13:24.642Z,61.20
2019-04-10T00:18:36.813Z,61.30
2019-04-10T00:21:15.513Z,61.40
2019-04-10T00:23:52.472Z,61.60
2019-04-10T00:26:22.031Z,61.30
2019-04-10T00:29:12.450Z,61.50
2019-04-10T00:31:42.270Z,61.00
2019-04-10T00:34:21.478Z,61.60
2019-04-10T00:37:01.822Z,61.20
2019-04-10T00:39:55.133Z,61.80
2019-04-10T00:42:34.805Z,60.90
2019-04-10T00:45:15.444Z,61.90
2019-04-10T00:47:53.198Z,61.70
2019-04-10T00:50:32.684Z,61.10
2019-04-10T00:53:12.794Z,61.70
2019-04-10T00:56:04.722Z,62.00
2019-04-10T00:58:45.742Z,61.30
2019-04-10T01:01:11.891Z,61.50
2019-04-10T01:03:51.244Z,61.80
2019-04-10T01:06:21.973Z,61.20
2019-04-10T01:08:59.820Z,61.60
2019-04-10T01:11:39.231Z,61.50
2019-04-10T01:14:16.055Z,61.60
2019-04-10T01:16:45.578Z,61.20
2019-04-10T01:19:15.536Z,60.90
2019-04-10T01:21:54.845Z,61.50
2019-04-10T01:24:34.229Z,61.60
2019-04-10T01:27:23.584Z,61.60
2019-04-10T01:29:53.688Z,61.30
2019-04-10T01:32:29.962Z,62.00
2019-04-10T01:35:00.300Z,61.70
2019-04-10T01:39:40.551Z,61.20
2019-04-10T01:40:07.847Z,61.50
2019-04-10T01:43:00.796Z,62.00
2019-04-10T01:45:27.182Z,62.30
2019-04-10T01:48:03.796Z,61.80
2019-04-10T01:50:34.767Z,62.20
2019-04-10T01:53:07.497Z,62.60
2019-04-10T01:55:53.736Z,63.00
2019-04-10T01:58:31.128Z,63.60
2019-04-10T02:01:14.424Z,63.10
2019-04-10T02:04:05.456Z,63.70
2019-04-10T02:06:21.037Z,64.50
2019-04-10T02:09:01.120Z,63.90
2019-04-10T02:11:39.812Z,64.10
2019-04-10T02:14:20.362Z,64.50
2019-04-10T02:16:49.542Z,64.10
2019-04-10T02:20:43.443Z,64.60
2019-04-10T02:22:08.546Z,64.50
2019-04-10T02:24:57.825Z,64.80
2019-04-10T02:27:30.023Z,65.00
2019-04-10T02:30:19.653Z,65.30
2019-04-10T02:32:59.795Z,65.20
2019-04-10T02:38:26.123Z,65.70
2019-04-10T02:40:00.339Z,65.40
2019-04-10T02:40:47.700Z,65.70
2019-04-10T02:43:27.273Z,65.70
2019-04-10T02:46:06.454Z,66.20
2019-04-10T02:48:44.250Z,66.30
2019-04-10T02:51:13.758Z,66.70
2019-04-10T02:53:53.038Z,66.40
2019-04-10T02:56:21.485Z,66.80
2019-04-10T02:59:00.273Z,66.20
2019-04-10T03:04:18.326Z,67.00
2019-04-10T03:06:48.117Z,67.50
2019-04-10T03:09:41.749Z,67.70
2019-04-10T03:12:08.520Z,67.30
2019-04-10T03:13:55.561Z,66.60
2019-04-10T03:15:08.001Z,67.20
2019-04-10T03:17:40.148Z,67.90
2019-04-10T03:20:18.478Z,68.40
2019-04-10T03:22:56.789Z,68.20
2019-04-10T03:25:26.636Z,68.10
2019-04-10T03:28:07.098Z,68.30
2019-04-10T03:30:46.528Z,68.10
2019-04-10T03:33:37.563Z,68.20
2019-04-10T03:36:05.541Z,68.50
2019-04-10T03:38:55.495Z,69.10
2019-04-10T03:41:24.127Z,69.00
2019-04-10T03:44:16.682Z,69.40
2019-04-10T03:46:44.851Z,69.30
2019-04-10T03:49:23.465Z,69.60
2019-04-10T03:51:52.940Z,69.60
2019-04-10T03:54:41.570Z,69.70
2019-04-10T03:57:12.050Z,70.00
2019-04-10T04:00:14.749Z,70.10
2019-04-10T04:02:52.097Z,70.10
2019-04-10T04:05:35.019Z,70.10
2019-04-10T04:08:13.037Z,70.10
2019-04-10T04:10:55.163Z,70.40
2019-04-10T04:13:31.354Z,70.60
2019-04-10T04:16:12.932Z,70.00
2019-04-10T04:18:51.287Z,70.40
2019-04-10T04:21:23.695Z,70.80
2019-04-10T04:26:55.074Z,70.50
2019-04-10T04:32:37.961Z,70.70
2019-04-10T04:35:06.141Z,70.60
2019-04-10T04:37:46.308Z,71.10
2019-04-10T04:40:25.805Z,70.90
2019-04-10T04:43:03.699Z,71.20
2019-04-10T04:45:33.456Z,71.10
2019-04-10T04:48:21.930Z,71.30
2019-04-10T04:50:52.390Z,71.00
2019-04-10T04:53:30.395Z,71.10
2019-04-10T04:56:11.938Z,71.20
2019-04-10T04:58:49.793Z,71.30
2019-04-10T05:01:19.385Z,71.20
2019-04-10T05:04:00.339Z,71.50
2019-04-10T05:06:39.582Z,71.10
2019-04-10T05:09:34.303Z,71.10
2019-04-10T05:11:58.633Z,71.40
2019-04-10T05:14:37.792Z,71.40
2019-04-10T05:17:17.968Z,71.60
2019-04-10T05:25:05.083Z,70.80
2019-04-10T05:30:25.000Z,71.20
2019-04-10T05:33:02.434Z,70.70
2019-04-10T05:35:32.052Z,71.10
2019-04-10T05:40:01.537Z,70.70
2019-04-10T05:43:18.480Z,71.10
2019-04-10T05:45:55.181Z,70.70
2019-04-10T05:48:39.834Z,70.40
2019-04-10T05:51:19.173Z,70.30
2019-04-10T05:53:58.543Z,70.30
2019-04-10T05:57:42.655Z,70.50
2019-04-10T05:59:16.411Z,70.20
2019-04-10T06:01:56.878Z,69.10
2019-04-10T06:04:25.326Z,69.90
2019-04-10T06:07:03.130Z,70.30
2019-04-10T06:09:33.146Z,70.20
2019-04-10T06:12:11.948Z,70.20
2019-04-10T06:14:50.464Z,70.10
2019-04-10T06:18:09.114Z,69.40
2019-04-10T06:19:58.586Z,68.90
2019-04-10T06:22:36.985Z,68.60
2019-04-10T06:25:08.678Z,69.40
2019-04-10T06:27:45.698Z,69.30
2019-04-10T06:30:24.181Z,69.40
2019-04-10T06:32:53.891Z,69.00
2019-04-10T06:35:24.099Z,69.70
2019-04-10T06:37:54.687Z,69.20
2019-04-10T06:40:27.205Z,69.20
2019-04-10T06:42:57.890Z,68.80
2019-04-10T06:45:28.022Z,68.80
2019-04-10T06:47:58.427Z,68.60
2019-04-10T06:50:30.095Z,68.50
2019-04-10T06:53:00.295Z,68.50
2019-04-10T06:55:30.163Z,69.20
2019-04-10T06:58:00.887Z,68.20
2019-04-10T07:00:32.391Z,67.60
2019-04-10T07:03:06.479Z,67.60
2019-04-10T07:05:46.183Z,67.70
2019-04-10T07:08:16.367Z,68.30
2019-04-10T07:10:55.404Z,68.20
2019-04-10T07:13:19.750Z,67.90
2019-04-10T07:15:56.336Z,67.70
2019-04-10T07:18:24.209Z,67.40
2019-04-10T07:20:56.370Z,67.50
2019-04-10T07:23:30.355Z,67.60
2019-04-10T07:25:59.448Z,66.80
2019-04-10T07:28:29.916Z,66.80
2019-04-10T07:31:04.736Z,66.90
2019-04-10T07:33:31.528Z,66.50
2019-04-10T07:36:10.914Z,66.60
2019-04-10T07:38:37.811Z,66.00
2019-04-10T07:41:18.316Z,65.90
2019-04-10T07:43:44.757Z,65.90
2019-04-10T07:46:15.118Z,66.00
2019-04-10T07:48:45.568Z,65.00
2019-04-10T07:51:15.097Z,65.10
2019-04-10T07:53:44.606Z,63.90
2019-04-10T07:56:19.262Z,63.30
2019-04-10T07:58:49.246Z,63.60
2019-04-10T08:01:18.775Z,64.00
2019-04-10T08:03:51.381Z,63.50
2019-04-10T08:06:20.253Z,63.60
2019-04-10T08:08:49.705Z,63.10
2019-04-10T08:11:20.365Z,63.00
2019-04-10T08:13:49.842Z,62.80
2019-04-10T08:16:19.292Z,63.00
2019-04-10T08:18:49.841Z,62.60
2019-04-10T08:21:19.796Z,62.10
2019-04-10T08:23:51.432Z,61.40
2019-04-10T08:26:22.813Z,61.10
2019-04-10T08:28:52.341Z,60.80
2019-04-10T08:31:22.726Z,60.40
2019-04-10T08:33:52.849Z,60.40
2019-04-10T08:36:23.442Z,60.80
2019-04-10T08:38:55.030Z,61.10
2019-04-10T08:41:25.616Z,60.30
2019-04-10T08:43:56.615Z,60.40
2019-04-10T08:46:28.261Z,59.60
2019-04-10T08:48:58.074Z,59.60
2019-04-10T08:51:30.972Z,60.10
2019-04-10T08:54:04.774Z,59.60
2019-04-10T08:56:34.353Z,59.50
2019-04-10T08:59:07.623Z,58.90
2019-04-10T09:01:37.650Z,58.90
2019-04-10T09:04:07.785Z,59.00
2019-04-10T09:06:37.795Z,59.40
2019-04-10T09:09:08.135Z,58.90
2019-04-10T09:11:39.070Z,58.20
2019-04-10T09:14:08.709Z,57.80
2019-04-10T09:16:38.540Z,57.30
2019-04-10T09:19:12.010Z,57.80
2019-04-10T09:21:41.696Z,57.60
2019-04-10T09:24:15.375Z,58.00
2019-04-10T09:26:46.672Z,57.60
2019-04-10T09:29:16.170Z,56.70
2019-04-10T09:31:48.153Z,56.10
2019-04-10T09:34:19.906Z,55.40
2019-04-10T09:36:49.349Z,54.90
2019-04-10T09:39:19.181Z,54.90
2019-04-10T09:41:48.753Z,54.20
2019-04-10T09:44:21.196Z,53.80
2019-04-10T09:46:51.702Z,53.60
2019-04-10T09:49:31.663Z,54.40
2019-04-10T09:51:52.373Z,54.80
2019-04-10T09:54:21.909Z,55.00
2019-04-10T09:56:51.365Z,54.30
2019-04-10T09:59:31.249Z,54.30
2019-04-10T10:01:52.840Z,54.00
2019-04-10T10:04:22.259Z,53.50
2019-04-10T10:06:53.372Z,52.80
2019-04-10T10:09:23.863Z,53.00
2019-04-10T10:11:59.027Z,52.10
2019-04-10T10:14:31.915Z,52.10
2019-04-10T10:17:01.230Z,51.40
2019-04-10T10:19:30.772Z,51.40
2019-04-10T10:22:02.262Z,51.50
2019-04-10T10:24:31.312Z,51.70
2019-04-10T10:27:01.892Z,51.90
2019-04-10T10:29:35.655Z,51.80
2019-04-10T10:32:06.611Z,51.20
2019-04-10T10:34:36.714Z,51.40
2019-04-10T10:37:06.500Z,51.60
2019-04-10T10:39:37.010Z,51.80
2019-04-10T10:42:09.665Z,52.00
2019-04-10T10:44:40.432Z,51.90
2019-04-10T10:47:11.783Z,51.40
2019-04-10T10:49:43.174Z,50.90
2019-04-10T10:52:15.358Z,51.00
2019-04-10T10:54:45.243Z,50.40
2019-04-10T10:57:15.579Z,50.30
2019-04-10T10:59:45.982Z,49.70
2019-04-10T11:02:15.741Z,49.30
2019-04-10T11:04:45.398Z,48.80
2019-04-10T11:07:14.773Z,48.20
2019-04-10T11:09:44.452Z,48.20
2019-04-10T11:12:14.145Z,48.00
2019-04-10T11:14:45.654Z,47.40
2019-04-10T11:17:17.558Z,45.70
2019-04-10T11:19:48.672Z,43.30
2019-04-10T11:22:22.527Z,42.10
2019-04-10T11:24:52.879Z,40.80
2019-04-10T11:27:23.435Z,40.30
2019-04-10T11:30:00.842Z,40.20
2019-04-10T11:32:30.599Z,40.20
2019-04-10T11:35:00.057Z,39.90
2019-04-10T11:37:39.161Z,40.40
2019-04-10T11:40:01.278Z,40.20
2019-04-10T11:42:33.398Z,39.30
2019-04-10T11:45:08.024Z,37.90
2019-04-10T11:47:38.845Z,38.00
2019-04-10T11:50:13.400Z,37.90
2019-04-10T11:52:49.001Z,36.30
2019-04-10T11:57:45.929Z,35.20
2019-04-10T12:00:19.715Z,35.40
2019-04-10T12:02:52.855Z,36.10
2019-04-10T12:05:25.464Z,36.00
2019-04-10T12:08:20.997Z,35.80
2019-04-10T12:12:57.644Z,35.20
2019-04-10T12:15:28.152Z,34.10
2019-04-10T12:17:58.199Z,34.40
2019-04-10T12:20:29.211Z,33.30
2019-04-10T12:22:58.927Z,32.60
2019-04-10T12:25:29.868Z,32.40
2019-04-10T12:27:59.328Z,32.90
2019-04-10T12:30:28.998Z,33.20
2019-04-10T12:33:01.541Z,32.20
2019-04-10T12:35:31.967Z,30.80
2019-04-10T12:38:06.905Z,30.20
2019-04-10T12:40:33.413Z,30.90
2019-04-10T12:43:03.169Z,30.20
2019-04-10T12:45:32.748Z,29.70
2019-04-10T12:48:02.191Z,29.20
2019-04-10T12:50:32.766Z,29.70
2019-04-10T12:53:03.816Z,30.10
2019-04-10T12:55:33.251Z,30.20
2019-04-10T12:58:08.399Z,30.60
2019-04-10T13:00:35.969Z,30.90
2019-04-10T13:03:09.262Z,30.90
2019-04-10T13:05:41.138Z,30.10
2019-04-10T13:08:17.092Z,30.10
2019-04-10T13:10:43.560Z,29.60
2019-04-10T13:13:18.423Z,29.00
2019-04-10T13:15:49.775Z,28.80
2019-04-10T13:18:20.447Z,29.30
2019-04-10T13:20:50.304Z,29.60
2019-04-10T13:23:20.457Z,29.60
2019-04-10T13:25:59.787Z,28.40
2019-04-10T13:28:22.153Z,28.50
2019-04-10T13:30:54.094Z,28.30
2019-04-10T13:33:22.676Z,27.80
2019-04-10T13:35:53.393Z,27.80
2019-04-10T13:38:28.725Z,27.60
2019-04-10T13:40:54.316Z,28.20
2019-04-10T13:43:23.831Z,27.70
2019-04-10T13:45:54.166Z,27.40
2019-04-10T13:48:23.677Z,27.70
2019-04-10T13:50:53.115Z,28.20
2019-04-10T13:53:23.767Z,28.20
2019-04-10T13:55:53.269Z,28.30
2019-04-10T13:58:25.011Z,28.60
2019-04-10T14:00:53.856Z,29.00
2019-04-10T14:03:23.285Z,29.10
2019-04-10T14:05:52.994Z,28.30
2019-04-10T14:08:33.924Z,29.60
2019-04-10T14:10:53.655Z,29.80
2019-04-10T14:13:25.179Z,29.10
2019-04-10T14:15:55.988Z,29.20
2019-04-10T14:18:26.230Z,29.90
2019-04-10T14:20:55.789Z,30.50
2019-04-10T14:23:29.461Z,31.90
2019-04-10T14:26:20.267Z,32.80
2019-04-10T14:28:49.266Z,33.00
2019-04-10T14:31:32.533Z,33.80
2019-04-10T14:34:04.636Z,35.10
2019-04-10T14:36:34.133Z,35.30
2019-04-10T14:39:12.157Z,35.60
2019-04-10T14:41:38.022Z,35.50
2019-04-10T14:44:08.276Z,35.40
2019-04-10T14:46:38.093Z,36.10
2019-04-10T14:49:07.627Z,36.60
2019-04-10T14:51:39.102Z,36.60
2019-04-10T14:54:09.052Z,36.10
2019-04-10T14:56:38.589Z,36.10
2019-04-10T14:59:08.131Z,36.30
2019-04-10T15:01:37.873Z,36.20
2019-04-10T15:04:08.880Z,35.80
2019-04-10T15:06:38.288Z,35.40
2019-04-10T15:09:24.005Z,35.90
2019-04-10T15:11:49.101Z,36.00
2019-04-10T15:14:19.397Z,36.10
2019-04-10T15:17:01.869Z,36.50
2019-04-10T15:19:28.968Z,36.60
2019-04-10T15:22:04.645Z,36.70
2019-04-10T15:24:37.223Z,37.00
2019-04-10T15:27:11.063Z,37.00
2019-04-10T15:29:40.879Z,37.40
2019-04-10T15:32:10.694Z,37.00
2019-04-10T15:34:40.200Z,36.80
2019-04-10T15:37:11.176Z,37.30
2019-04-10T15:39:41.776Z,37.70
2019-04-10T15:42:14.206Z,37.20
2019-04-10T15:44:48.167Z,37.40
2019-04-10T15:47:21.451Z,37.90
2019-04-10T15:49:52.199Z,38.60
2019-04-10T15:52:20.785Z,37.80
2019-04-10T15:54:53.319Z,37.60
2019-04-10T15:57:24.909Z,37.30
2019-04-10T15:59:56.621Z,37.60
2019-04-10T16:02:26.225Z,37.70
2019-04-10T16:05:03.121Z,37.70
2019-04-10T16:07:36.218Z,37.80
2019-04-10T16:10:14.883Z,37.60
2019-04-10T16:12:44.431Z,36.50
2019-04-10T16:15:15.220Z,36.80
2019-04-10T16:17:52.205Z,36.80
2019-04-10T16:20:30.514Z,37.20
2019-04-10T16:23:10.566Z,37.30
2019-04-10T16:25:43.419Z,36.40
2019-04-10T16:28:15.412Z,36.70
2019-04-10T16:30:47.127Z,36.80
2019-04-10T16:33:18.859Z,37.40
2019-04-10T16:35:48.546Z,37.80
2019-04-10T16:38:20.704Z,37.80
2019-04-10T16:40:52.074Z,38.70
2019-04-10T16:43:27.118Z,39.30
2019-04-10T16:45:57.262Z,39.20
2019-04-10T16:48:28.271Z,38.90
2019-04-10T16:50:57.851Z,39.40
2019-04-10T16:53:27.929Z,39.90
2019-04-10T16:55:57.539Z,39.90
2019-04-10T16:58:29.736Z,39.60
2019-04-10T17:00:59.185Z,38.70
2019-04-10T17:03:29.547Z,38.00
2019-04-10T17:06:01.870Z,38.80
2019-04-10T17:08:34.284Z,39.90
2019-04-10T17:11:05.478Z,39.80
2019-04-10T17:13:38.514Z,39.90
2019-04-10T17:16:09.508Z,39.50
2019-04-10T17:18:39.885Z,39.80
2019-04-10T17:21:09.459Z,40.20
2019-04-10T17:23:42.841Z,40.70
2019-04-10T17:26:12.944Z,41.50
2019-04-10T17:28:44.845Z,41.00
2019-04-10T17:31:16.115Z,41.00
2019-04-10T17:33:47.170Z,41.20
2019-04-10T17:36:16.986Z,41.20
2019-04-10T17:38:48.739Z,40.90
2019-04-10T17:41:19.694Z,40.60
2019-04-10T17:43:49.590Z,41.00
2019-04-10T17:46:20.457Z,41.40
2019-04-10T17:48:51.748Z,41.40
2019-04-10T17:51:28.271Z,40.60
2019-04-10T17:53:58.064Z,40.60
2019-04-10T17:56:30.480Z,40.60
2019-04-10T17:59:00.281Z,40.30
2019-04-10T18:01:29.897Z,40.40
2019-04-10T18:04:03.472Z,40.90
2019-04-10T18:06:31.581Z,41.20
2019-04-10T18:09:11.890Z,41.60
2019-04-10T18:11:41.868Z,42.10
2019-04-10T18:14:11.340Z,42.00
2019-04-10T18:16:40.780Z,42.20
2019-04-10T18:19:15.338Z,42.10
2019-04-10T18:21:44.463Z,42.20
2019-04-10T18:24:15.751Z,42.20
2019-04-10T18:26:50.786Z,42.10
2019-04-10T18:29:19.085Z,42.40
2019-04-10T18:31:49.366Z,42.70
2019-04-10T18:34:20.042Z,42.90
2019-04-10T18:36:52.374Z,43.00
2019-04-10T18:39:20.605Z,43.10
2019-04-10T18:41:52.101Z,43.10
2019-04-10T18:44:22.706Z,43.50
2019-04-10T18:46:54.314Z,43.80
2019-04-10T18:49:25.698Z,44.40
2019-04-10T18:51:56.267Z,44.50
2019-04-10T18:54:26.916Z,44.40
2019-04-10T18:56:57.647Z,44.30
2019-04-10T18:59:44.907Z,44.40
2019-04-10T19:02:32.866Z,44.20
2019-04-10T19:05:11.759Z,44.70
2019-04-10T19:07:41.343Z,44.60
2019-04-10T19:10:12.899Z,45.10
2019-04-10T19:12:43.220Z,44.90
2019-04-10T19:15:13.330Z,45.10
2019-04-10T19:17:43.343Z,45.00
2019-04-10T19:20:13.542Z,45.20
2019-04-10T19:22:44.670Z,45.40
2019-04-10T19:25:16.438Z,45.40
2019-04-10T19:27:46.549Z,45.30
2019-04-10T19:30:19.083Z,44.80
2019-04-10T19:32:51.958Z,45.00
2019-04-10T19:35:21.539Z,45.30
2019-04-10T19:37:51.575Z,45.30
2019-04-10T19:40:24.810Z,44.60
2019-04-10T19:42:57.759Z,44.70
2019-04-10T19:45:30.688Z,45.00
2019-04-10T19:48:09.000Z,44.50
2019-04-10T19:50:41.540Z,44.50
2019-04-10T19:53:11.212Z,44.50
2019-04-10T19:55:42.294Z,44.80
2019-04-10T19:58:14.207Z,44.60
2019-04-10T20:00:46.965Z,44.20
2019-04-10T20:03:16.466Z,44.40
2019-04-10T20:05:46.991Z,44.30
2019-04-10T20:08:17.617Z,44.80
2019-04-10T20:10:47.991Z,44.60
2019-04-10T20:13:21.290Z,44.50
2019-04-10T20:15:51.002Z,44.60
2019-04-10T20:18:20.992Z,44.30
2019-04-10T20:20:53.265Z,44.20
2019-04-10T20:23:23.734Z,44.40
2019-04-10T20:25:53.337Z,44.60
2019-04-10T20:28:24.734Z,44.50
2019-04-10T20:30:58.323Z,45.40
2019-04-10T20:33:29.034Z,44.40
2019-04-10T20:36:00.461Z,44.60
2019-04-10T20:38:32.030Z,44.30
2019-04-10T20:41:02.347Z,44.60
2019-04-10T20:43:35.162Z,45.00
2019-04-10T20:46:06.601Z,44.90
2019-04-10T20:48:38.387Z,45.10
2019-04-10T20:51:09.311Z,45.20
2019-04-10T20:53:40.710Z,44.70
2019-04-10T20:56:12.449Z,44.60
2019-04-10T20:58:44.831Z,45.00
2019-04-10T21:01:14.584Z,44.90
2019-04-10T21:03:44.644Z,45.20
2019-04-10T21:06:15.647Z,45.40
2019-04-10T21:08:47.098Z,45.60
2019-04-10T21:11:16.556Z,45.90
2019-04-10T21:13:48.988Z,46.10
2019-04-10T21:16:21.406Z,45.90
2019-04-10T21:18:51.805Z,46.40
2019-04-10T21:21:22.196Z,46.60
2019-04-10T21:23:57.540Z,46.60
2019-04-10T21:26:28.309Z,47.80
2019-04-10T21:28:58.765Z,46.60
2019-04-10T21:31:44.802Z,46.80
2019-04-10T21:34:26.219Z,47.10
2019-04-10T21:36:57.612Z,47.30
2019-04-10T21:39:27.756Z,46.90
2019-04-10T21:42:15.808Z,46.90
2019-04-10T21:44:37.165Z,47.40
2019-04-10T21:47:06.713Z,47.50
2019-04-10T21:49:38.027Z,47.50
2019-04-10T21:52:07.809Z,47.60
2019-04-10T21:54:49.488Z,47.70
2019-04-10T21:57:14.238Z,48.00
2019-04-10T21:59:43.827Z,47.60
2019-04-10T22:02:15.332Z,47.60
2019-04-10T22:04:45.968Z,47.70
2019-04-10T22:07:32.271Z,47.80
2019-04-10T22:10:03.852Z,48.00
2019-04-10T22:12:39.409Z,47.50
2019-04-10T22:15:09.277Z,47.70
2019-04-10T22:17:42.566Z,47.60
2019-04-10T22:20:12.077Z,47.80
2019-04-10T22:22:41.636Z,47.70
2019-04-10T22:25:15.176Z,48.10
2019-04-10T22:27:48.302Z,49.00
2019-04-10T22:30:19.243Z,48.30
2019-04-10T22:32:51.611Z,48.20
2019-04-10T22:35:31.629Z,48.30
2019-04-10T22:38:00.998Z,48.60
2019-04-10T22:40:31.202Z,48.80
2019-04-10T22:43:00.760Z,48.90
2019-04-10T22:45:36.009Z,49.20
2019-04-10T22:48:06.287Z,49.60
2019-04-10T22:50:45.383Z,49.90
2019-04-10T22:53:15.192Z,50.10
2019-04-10T22:55:44.605Z,50.20
2019-04-10T22:58:14.960Z,50.80
2019-04-10T23:00:48.465Z,50.90
2019-04-10T23:03:20.214Z,51.10
2019-04-10T23:05:53.081Z,51.20
2019-04-10T23:08:28.452Z,51.00
2019-04-10T23:11:01.509Z,51.20
2019-04-10T23:13:34.072Z,51.40
2019-04-10T23:16:08.640Z,51.50
2019-04-10T23:18:47.807Z,51.60
2019-04-10T23:21:18.641Z,52.10
2019-04-10T23:23:48.941Z,52.40
2019-04-10T23:26:22.965Z,52.90
2019-04-10T23:28:54.581Z,53.40
2019-04-10T23:31:27.889Z,53.40
2019-04-10T23:34:04.901Z,53.30
2019-04-10T23:36:34.576Z,53.60
2019-04-10T23:39:10.326Z,54.00
2019-04-10T23:41:40.019Z,53.70
2019-04-10T23:44:11.015Z,53.80
2019-04-10T23:46:40.473Z,54.20
2019-04-10T23:49:13.048Z,54.20
2019-04-10T23:51:45.398Z,54.70
2019-04-10T23:54:15.217Z,54.20
2019-04-10T23:56:47.644Z,54.60
2019-04-10T23:59:15.809Z,55.00
